EDT,Max TemperatureF,Mean TemperatureF,Min TemperatureF,Max Dew PointF,MeanDew PointF,Min DewpointF,Max Humidity, Mean Humidity, Min Humidity, Max Sea Level PressureIn, Mean Sea Level PressureIn, Min Sea Level PressureIn, Max VisibilityMiles, Mean VisibilityMiles, Min VisibilityMiles, Max Wind SpeedMPH, Mean Wind SpeedMPH, Max Gust SpeedMPH,PrecipitationIn, CloudCover, Events, WindDirDegrees
2013-5-1,77,66,54,56,51,45,83,63,43,30.28,30.23,30.14,10,10,9,16,9,23,0.00,0,,131
2013-5-2,77,66,55,47,39,33,51,38,25,30.32,30.25,30.17,10,10,9,18,10,22,0.00,3,,126
2013-5-3,76,66,55,42,38,32,55,40,25,30.21,30.15,30.09,10,10,9,22,13,29,0.00,5,,134
2013-5-4,71,61,51,42,38,34,59,43,26,30.17,30.12,30.07,10,10,9,21,12,28,0.00,6,,122
2013-5-5,74,62,50,40,34,24,63,40,17,30.11,30.06,29.99,10,10,9,22,12,29,0.00,3,,115
2013-5-6,73,63,52,51,43,28,72,52,31,30.06,30.02,29.97,10,10,7,20,11,25,0.00,6,,124
2013-5-7,72,65,57,55,53,51,80,65,49,30.03,30.00,29.96,10,9,7,17,9,21,T,7,Rain,97
2013-5-8,73,66,58,56,52,49,87,69,51,29.99,29.96,29.93,10,10,7,15,6,18,0.06,7,Rain,37
2013-5-9,79,67,54,56,49,39,93,61,28,29.99,29.96,29.93,10,8,3,14,5,21,0.00,6,,326
2013-5-10,73,66,59,61,58,48,97,77,56,29.96,29.86,29.78,10,7,1,33,10,49,0.50,7,Rain-Thunderstorm,207
2013-5-11,62,54,45,59,48,42,97,85,72,29.88,29.83,29.77,10,4,0,28,9,37,0.16,8,Fog-Rain,302
2013-5-12,50,44,37,38,31,25,85,64,42,30.09,29.97,29.89,10,10,9,23,13,33,T,4,Rain,282
2013-5-13,53,43,32,30,26,19,75,52,28,30.19,30.14,30.08,10,10,8,21,9,30,0.00,3,,305
2013-5-14,66,51,36,40,34,25,64,51,37,30.18,30.03,29.83,10,10,8,22,11,29,T,5,,171
2013-5-15,84,70,55,61,52,39,73,52,31,29.84,29.77,29.73,10,8,6,26,11,37,0.04,6,Rain-Thunderstorm,238
2013-5-16,80,68,55,51,47,41,77,52,27,29.96,29.88,29.78,10,9,7,14,6,17,0.00,5,,277
2013-5-17,80,66,52,62,52,42,90,65,39,30.12,30.08,29.99,10,7,2,17,6,22,0.00,4,,79
2013-5-18,83,69,54,56,50,42,71,52,33,30.14,30.08,30.02,10,9,7,13,7,17,0.00,4,,102
2013-5-19,81,72,62,63,61,59,90,73,56,30.07,30.01,29.96,10,9,5,16,8,23,0.00,3,,150
2013-5-20,83,74,65,70,66,62,93,78,62,30.03,29.96,29.89,10,7,5,17,10,22,0.00,3,,187
2013-5-21,86,77,68,68,65,62,93,69,45,29.92,29.87,29.80,9,6,3,22,11,31,0.00,5,,203
2013-5-22,84,75,66,64,60,57,81,62,43,29.85,29.79,29.73,10,9,7,32,14,40,0.01,5,Rain,209
2013-5-23,73,58,43,63,56,40,93,78,63,30.01,29.82,29.76,10,6,2,24,13,32,0.15,8,Rain,260
2013-5-24,46,40,34,40,34,31,89,76,62,30.32,30.23,30.03,10,9,6,23,13,32,0.00,6,,337
2013-5-25,61,45,29,38,32,28,100,66,32,30.37,30.33,30.29,10,8,0,18,8,25,0.00,2,Fog,325
2013-5-26,66,50,34,39,32,28,82,54,26,30.33,30.29,30.25,10,10,9,14,7,21,0.00,4,,346
2013-5-27,61,52,43,48,41,33,77,64,50,30.28,30.21,30.07,10,9,7,14,7,18,0.09,7,Rain,132
2013-5-28,83,69,54,66,59,49,93,72,51,30.09,30.00,29.93,10,7,3,23,11,31,0.13,7,Rain,198
2013-5-29,87,78,69,62,60,58,68,55,42,30.07,30.02,29.97,10,10,8,22,13,29,0.00,5,,220
2013-5-30,88,77,65,65,61,56,87,61,34,30.17,30.10,30.06,10,9,6,18,9,24,0.00,5,,203
2013-5-31,89,77,65,65,63,61,87,64,40,30.09,30.03,29.95,10,8,2,29,11,40,0.38,5,Rain-Thunderstorm,206